Athelstane, Wisconsin
Current Conditions -  °F | °C
As of 9:54 AM on Friday 28 Nov 2014 (Local Time) from KIMT Reporting Station
Light Snow Light Snow  
Wind Chill: -1°   Ceiling: 3700
Heat Index: 10°   Visibility: 3mi
Dew Point:   Wind: 7mph
Humidity: 76%   Direction: 170°S
Pressure: 30.11"   Gusts: NA
Location:  45.42°N, 88.1°W
Report Text: KIMT 281554Z AUTO 17006KT 3SM -SN BKN037 OVC045 M12/M16 A3011 RMK AO2 SNB27 SLP230 P0000 T11221156
Loading
Personal Weather Stations






























Interactive Weather Map New forecast layout! Learn more

10-Day Weather Forecast

Advertisements
Track Severe Weather on mobile